sensor_id;sensor_type;location;lat;lon;timestamp;temperature;humidity
76305;DHT22;65111;50.536;19.204;2023-05-01T00:01:08;3.90;56.60
76305;DHT22;65111;50.536;19.204;2023-05-01T00:03:34;3.80;56.70
76305;DHT22;65111;50.536;19.204;2023-05-01T00:06:02;4.00;57.00
76305;DHT22;65111;50.536;19.204;2023-05-01T00:08:30;3.70;57.30
76305;DHT22;65111;50.536;19.204;2023-05-01T00:11:04;3.70;57.60
76305;DHT22;65111;50.536;19.204;2023-05-01T00:13:31;3.60;57.80
76305;DHT22;65111;50.536;19.204;2023-05-01T00:15:58;3.70;58.00
76305;DHT22;65111;50.536;19.204;2023-05-01T00:18:24;3.30;58.20
76305;DHT22;65111;50.536;19.204;2023-05-01T00:20:50;3.40;58.10
76305;DHT22;65111;50.536;19.204;2023-05-01T00:23:16;3.30;58.30
76305;DHT22;65111;50.536;19.204;2023-05-01T00:25:42;3.20;58.40
76305;DHT22;65111;50.536;19.204;2023-05-01T00:28:08;3.30;58.50
76305;DHT22;65111;50.536;19.204;2023-05-01T00:30:34;3.30;58.30
76305;DHT22;65111;50.536;19.204;2023-05-01T00:33:00;3.30;58.60
76305;DHT22;65111;50.536;19.204;2023-05-01T00:35:28;3.20;58.60
76305;DHT22;65111;50.536;19.204;2023-05-01T00:37:54;3.20;58.50
76305;DHT22;65111;50.536;19.204;2023-05-01T00:40:21;3.30;58.90
76305;DHT22;65111;50.536;19.204;2023-05-01T00:42:47;3.10;59.00
76305;DHT22;65111;50.536;19.204;2023-05-01T00:45:13;3.30;59.00
76305;DHT22;65111;50.536;19.204;2023-05-01T00:47:40;3.50;58.70
76305;DHT22;65111;50.536;19.204;2023-05-01T00:50:06;3.40;58.60
76305;DHT22;65111;50.536;19.204;2023-05-01T00:52:33;3.40;58.50
76305;DHT22;65111;50.536;19.204;2023-05-01T00:54:59;3.20;58.50
76305;DHT22;65111;50.536;19.204;2023-05-01T00:57:25;3.40;58.80
76305;DHT22;65111;50.536;19.204;2023-05-01T00:59:51;3.30;59.00
76305;DHT22;65111;50.536;19.204;2023-05-01T01:02:17;3.50;59.00
76305;DHT22;65111;50.536;19.204;2023-05-01T01:04:45;3.50;59.00
76305;DHT22;65111;50.536;19.204;2023-05-01T01:17:38;3.70;58.50
76305;DHT22;65111;50.536;19.204;2023-05-01T01:20:45;3.70;58.50
76305;DHT22;65111;50.536;19.204;2023-05-01T01:34:33;3.60;59.50
76305;DHT22;65111;50.536;19.204;2023-05-01T01:39:42;3.60;59.50
76305;DHT22;65111;50.536;19.204;2023-05-01T01:42:15;3.50;59.50
76305;DHT22;65111;50.536;19.204;2023-05-01T01:44:49;3.40;59.50
76305;DHT22;65111;50.536;19.204;2023-05-01T01:47:18;3.30;59.80
76305;DHT22;65111;50.536;19.204;2023-05-01T01:49:51;3.30;59.90
76305;DHT22;65111;50.536;19.204;2023-05-01T01:52:19;3.10;60.50
76305;DHT22;65111;50.536;19.204;2023-05-01T01:54:53;3.20;60.60
76305;DHT22;65111;50.536;19.204;2023-05-01T01:57:23;3.10;60.50
76305;DHT22;65111;50.536;19.204;2023-05-01T01:59:50;3.10;60.60
76305;DHT22;65111;50.536;19.204;2023-05-01T02:02:19;3.10;60.50
76305;DHT22;65111;50.536;19.204;2023-05-01T02:04:47;3.10;60.80
76305;DHT22;65111;50.536;19.204;2023-05-01T02:07:16;2.90;60.60
76305;DHT22;65111;50.536;19.204;2023-05-01T02:09:45;3.20;61.00
76305;DHT22;65111;50.536;19.204;2023-05-01T02:12:11;2.90;61.20
76305;DHT22;65111;50.536;19.204;2023-05-01T02:14:40;3.00;61.70
76305;DHT22;65111;50.536;19.204;2023-05-01T02:17:08;2.70;61.80
76305;DHT22;65111;50.536;19.204;2023-05-01T02:19:36;2.60;62.10
76305;DHT22;65111;50.536;19.204;2023-05-01T02:22:05;2.80;62.80
76305;DHT22;65111;50.536;19.204;2023-05-01T02:24:32;2.80;63.00
76305;DHT22;65111;50.536;19.204;2023-05-01T02:27:03;2.80;62.60
76305;DHT22;65111;50.536;19.204;2023-05-01T02:29:31;2.80;62.70
76305;DHT22;65111;50.536;19.204;2023-05-01T02:31:59;3.00;62.50
76305;DHT22;65111;50.536;19.204;2023-05-01T02:34:26;2.70;62.50
76305;DHT22;65111;50.536;19.204;2023-05-01T02:36:52;2.80;62.50
76305;DHT22;65111;50.536;19.204;2023-05-01T02:39:18;2.80;63.00
76305;DHT22;65111;50.536;19.204;2023-05-01T02:41:45;2.90;63.20
76305;DHT22;65111;50.536;19.204;2023-05-01T02:44:14;2.80;63.40
76305;DHT22;65111;50.536;19.204;2023-05-01T02:46:42;2.90;63.20
76305;DHT22;65111;50.536;19.204;2023-05-01T02:49:11;3.00;63.10
76305;DHT22;65111;50.536;19.204;2023-05-01T02:51:38;2.80;63.10
76305;DHT22;65111;50.536;19.204;2023-05-01T02:54:06;2.80;62.90
76305;DHT22;65111;50.536;19.204;2023-05-01T02:56:32;2.70;63.30
76305;DHT22;65111;50.536;19.204;2023-05-01T02:58:59;2.80;63.00
76305;DHT22;65111;50.536;19.204;2023-05-01T03:01:26;2.80;62.90
76305;DHT22;65111;50.536;19.204;2023-05-01T03:03:53;2.60;62.90
76305;DHT22;65111;50.536;19.204;2023-05-01T03:06:19;2.90;62.70
76305;DHT22;65111;50.536;19.204;2023-05-01T03:08:45;2.90;62.60
76305;DHT22;65111;50.536;19.204;2023-05-01T03:11:12;2.70;62.60
76305;DHT22;65111;50.536;19.204;2023-05-01T03:13:39;2.80;62.40
76305;DHT22;65111;50.536;19.204;2023-05-01T03:16:05;2.80;62.50
76305;DHT22;65111;50.536;19.204;2023-05-01T03:18:32;2.90;62.40
76305;DHT22;65111;50.536;19.204;2023-05-01T03:20:58;3.00;62.50
76305;DHT22;65111;50.536;19.204;2023-05-01T03:23:24;3.00;62.50
76305;DHT22;65111;50.536;19.204;2023-05-01T03:25:50;3.10;62.70
76305;DHT22;65111;50.536;19.204;2023-05-01T03:28:16;3.30;62.80
76305;DHT22;65111;50.536;19.204;2023-05-01T03:30:45;3.50;62.80
76305;DHT22;65111;50.536;19.204;2023-05-01T03:33:11;3.60;62.80
76305;DHT22;65111;50.536;19.204;2023-05-01T03:35:37;3.90;62.10
76305;DHT22;65111;50.536;19.204;2023-05-01T03:38:04;4.20;61.60
76305;DHT22;65111;50.536;19.204;2023-05-01T03:40:30;4.40;61.10
76305;DHT22;65111;50.536;19.204;2023-05-01T03:42:56;4.60;60.70
76305;DHT22;65111;50.536;19.204;2023-05-01T03:45:22;5.10;60.40
76305;DHT22;65111;50.536;19.204;2023-05-01T03:47:49;5.50;60.00
76305;DHT22;65111;50.536;19.204;2023-05-01T03:50:15;5.60;59.60
76305;DHT22;65111;50.536;19.204;2023-05-01T03:52:41;5.90;59.30
76305;DHT22;65111;50.536;19.204;2023-05-01T03:55:07;6.20;58.20
76305;DHT22;65111;50.536;19.204;2023-05-01T03:57:34;6.60;56.70
76305;DHT22;65111;50.536;19.204;2023-05-01T03:59:59;6.80;55.50
76305;DHT22;65111;50.536;19.204;2023-05-01T04:02:25;7.20;54.90
76305;DHT22;65111;50.536;19.204;2023-05-01T04:04:52;7.60;54.10
76305;DHT22;65111;50.536;19.204;2023-05-01T04:07:18;7.90;52.90
76305;DHT22;65111;50.536;19.204;2023-05-01T04:09:44;8.20;52.20
76305;DHT22;65111;50.536;19.204;2023-05-01T04:12:10;8.50;51.50
76305;DHT22;65111;50.536;19.204;2023-05-01T04:14:36;8.80;51.10
76305;DHT22;65111;50.536;19.204;2023-05-01T04:17:02;9.00;50.20
76305;DHT22;65111;50.536;19.204;2023-05-01T04:19:28;9.40;49.80
76305;DHT22;65111;50.536;19.204;2023-05-01T04:21:54;9.80;49.30
76305;DHT22;65111;50.536;19.204;2023-05-01T04:24:20;10.10;48.50
76305;DHT22;65111;50.536;19.204;2023-05-01T04:26:46;10.50;48.00
76305;DHT22;65111;50.536;19.204;2023-05-01T04:29:12;10.90;47.20
76305;DHT22;65111;50.536;19.204;2023-05-01T04:31:38;11.30;47.00
76305;DHT22;65111;50.536;19.204;2023-05-01T04:34:06;11.90;46.60
76305;DHT22;65111;50.536;19.204;2023-05-01T04:36:32;12.60;45.60
76305;DHT22;65111;50.536;19.204;2023-05-01T04:38:58;13.10;43.60
76305;DHT22;65111;50.536;19.204;2023-05-01T04:41:24;13.50;42.50
76305;DHT22;65111;50.536;19.204;2023-05-01T04:43:50;13.80;42.40
76305;DHT22;65111;50.536;19.204;2023-05-01T04:46:17;14.10;42.40
76305;DHT22;65111;50.536;19.204;2023-05-01T04:48:43;14.60;41.40
76305;DHT22;65111;50.536;19.204;2023-05-01T04:51:09;15.00;40.90
76305;DHT22;65111;50.536;19.204;2023-05-01T04:53:35;15.40;39.80
76305;DHT22;65111;50.536;19.204;2023-05-01T04:56:01;15.80;39.00
76305;DHT22;65111;50.536;19.204;2023-05-01T04:58:27;16.20;38.30
76305;DHT22;65111;50.536;19.204;2023-05-01T05:00:53;16.50;38.00
76305;DHT22;65111;50.536;19.204;2023-05-01T05:03:19;16.70;37.70
76305;DHT22;65111;50.536;19.204;2023-05-01T05:05:45;16.90;37.80
76305;DHT22;65111;50.536;19.204;2023-05-01T05:08:11;17.30;37.40
76305;DHT22;65111;50.536;19.204;2023-05-01T05:10:37;17.80;37.20
76305;DHT22;65111;50.536;19.204;2023-05-01T05:13:04;18.30;36.80
76305;DHT22;65111;50.536;19.204;2023-05-01T05:15:29;18.80;35.80
76305;DHT22;65111;50.536;19.204;2023-05-01T05:17:55;19.50;35.40
76305;DHT22;65111;50.536;19.204;2023-05-01T05:20:21;20.00;35.00
76305;DHT22;65111;50.536;19.204;2023-05-01T05:22:47;20.60;34.40
76305;DHT22;65111;50.536;19.204;2023-05-01T05:25:13;21.20;33.70
76305;DHT22;65111;50.536;19.204;2023-05-01T05:27:40;22.00;32.80
76305;DHT22;65111;50.536;19.204;2023-05-01T05:30:07;22.50;31.90
76305;DHT22;65111;50.536;19.204;2023-05-01T05:32:33;22.90;31.50
76305;DHT22;65111;50.536;19.204;2023-05-01T05:34:59;23.00;31.50
76305;DHT22;65111;50.536;19.204;2023-05-01T05:37:26;23.10;31.00
76305;DHT22;65111;50.536;19.204;2023-05-01T05:39:52;23.10;30.60
76305;DHT22;65111;50.536;19.204;2023-05-01T05:42:18;23.10;31.10
76305;DHT22;65111;50.536;19.204;2023-05-01T05:44:45;23.30;31.40
76305;DHT22;65111;50.536;19.204;2023-05-01T05:47:11;23.60;31.10
76305;DHT22;65111;50.536;19.204;2023-05-01T05:49:36;24.10;30.80
76305;DHT22;65111;50.536;19.204;2023-05-01T05:52:03;24.50;30.60
76305;DHT22;65111;50.536;19.204;2023-05-01T05:54:29;24.90;30.10
76305;DHT22;65111;50.536;19.204;2023-05-01T05:56:55;25.00;29.70
76305;DHT22;65111;50.536;19.204;2023-05-01T05:59:21;25.20;29.40
76305;DHT22;65111;50.536;19.204;2023-05-01T06:01:47;25.40;29.30
76305;DHT22;65111;50.536;19.204;2023-05-01T06:04:13;25.70;29.20
76305;DHT22;65111;50.536;19.204;2023-05-01T06:06:40;25.90;29.30
76305;DHT22;65111;50.536;19.204;2023-05-01T07:23:09;33.30;22.80
76305;DHT22;65111;50.536;19.204;2023-05-01T07:25:36;33.80;22.80
76305;DHT22;65111;50.536;19.204;2023-05-01T07:28:03;34.10;22.60
76305;DHT22;65111;50.536;19.204;2023-05-01T07:30:30;34.70;22.20
76305;DHT22;65111;50.536;19.204;2023-05-01T07:32:57;35.30;22.60
76305;DHT22;65111;50.536;19.204;2023-05-01T07:35:23;36.20;21.80
76305;DHT22;65111;50.536;19.204;2023-05-01T07:37:51;36.80;21.20
76305;DHT22;65111;50.536;19.204;2023-05-01T07:40:18;37.10;21.30
76305;DHT22;65111;50.536;19.204;2023-05-01T07:42:44;37.30;21.30
76305;DHT22;65111;50.536;19.204;2023-05-01T07:45:10;37.80;21.00
76305;DHT22;65111;50.536;19.204;2023-05-01T07:47:36;38.00;21.00
76305;DHT22;65111;50.536;19.204;2023-05-01T07:50:03;38.50;21.10
76305;DHT22;65111;50.536;19.204;2023-05-01T07:52:29;39.30;21.20
76305;DHT22;65111;50.536;19.204;2023-05-01T07:54:55;40.50;20.70
76305;DHT22;65111;50.536;19.204;2023-05-01T07:57:21;41.40;20.30
76305;DHT22;65111;50.536;19.204;2023-05-01T07:59:54;41.80;19.90
76305;DHT22;65111;50.536;19.204;2023-05-01T08:02:21;41.60;19.90
76305;DHT22;65111;50.536;19.204;2023-05-01T08:04:47;40.80;20.20
76305;DHT22;65111;50.536;19.204;2023-05-01T08:07:13;40.40;20.00
76305;DHT22;65111;50.536;19.204;2023-05-01T08:09:40;40.10;20.10
76305;DHT22;65111;50.536;19.204;2023-05-01T08:12:06;39.50;20.20
76305;DHT22;65111;50.536;19.204;2023-05-01T08:14:32;39.10;20.30
76305;DHT22;65111;50.536;19.204;2023-05-01T08:16:58;39.00;20.30
76305;DHT22;65111;50.536;19.204;2023-05-01T08:19:24;38.80;20.50
76305;DHT22;65111;50.536;19.204;2023-05-01T08:21:52;38.90;20.60
76305;DHT22;65111;50.536;19.204;2023-05-01T08:24:18;39.60;20.30
76305;DHT22;65111;50.536;19.204;2023-05-01T08:26:45;39.60;20.10
76305;DHT22;65111;50.536;19.204;2023-05-01T08:29:11;39.20;20.30
76305;DHT22;65111;50.536;19.204;2023-05-01T08:31:37;39.30;20.30
76305;DHT22;65111;50.536;19.204;2023-05-01T08:34:04;39.80;20.00
76305;DHT22;65111;50.536;19.204;2023-05-01T08:36:31;40.70;19.90
76305;DHT22;65111;50.536;19.204;2023-05-01T08:38:57;41.70;19.80
76305;DHT22;65111;50.536;19.204;2023-05-01T08:41:24;42.50;19.40
76305;DHT22;65111;50.536;19.204;2023-05-01T08:43:52;43.10;19.30
76305;DHT22;65111;50.536;19.204;2023-05-01T08:46:28;43.00;19.20
76305;DHT22;65111;50.536;19.204;2023-05-01T08:49:01;42.60;19.20
76305;DHT22;65111;50.536;19.204;2023-05-01T08:51:30;42.90;19.20
76305;DHT22;65111;50.536;19.204;2023-05-01T08:54:00;43.60;19.00
76305;DHT22;65111;50.536;19.204;2023-05-01T08:56:29;44.40;18.60
76305;DHT22;65111;50.536;19.204;2023-05-01T08:58:57;44.10;18.60
76305;DHT22;65111;50.536;19.204;2023-05-01T09:01:25;43.50;18.70
76305;DHT22;65111;50.536;19.204;2023-05-01T09:03:53;43.60;18.80
76305;DHT22;65111;50.536;19.204;2023-05-01T09:06:21;43.90;18.70
76305;DHT22;65111;50.536;19.204;2023-05-01T09:08:47;43.80;18.60
76305;DHT22;65111;50.536;19.204;2023-05-01T09:11:13;43.70;18.90
76305;DHT22;65111;50.536;19.204;2023-05-01T09:13:39;43.80;18.80
76305;DHT22;65111;50.536;19.204;2023-05-01T09:16:05;44.00;18.40
76305;DHT22;65111;50.536;19.204;2023-05-01T09:18:33;44.10;18.40
76305;DHT22;65111;50.536;19.204;2023-05-01T09:20:59;44.10;18.30
76305;DHT22;65111;50.536;19.204;2023-05-01T09:23:26;43.70;18.50
76305;DHT22;65111;50.536;19.204;2023-05-01T09:25:52;43.40;18.50
76305;DHT22;65111;50.536;19.204;2023-05-01T09:28:47;43.50;18.30
76305;DHT22;65111;50.536;19.204;2023-05-01T09:31:20;43.90;18.30
76305;DHT22;65111;50.536;19.204;2023-05-01T09:33:54;44.10;18.20
76305;DHT22;65111;50.536;19.204;2023-05-01T09:36:26;44.00;18.30
76305;DHT22;65111;50.536;19.204;2023-05-01T09:38:52;43.60;18.20
76305;DHT22;65111;50.536;19.204;2023-05-01T09:41:19;43.40;18.10
76305;DHT22;65111;50.536;19.204;2023-05-01T09:43:54;43.70;18.00
76305;DHT22;65111;50.536;19.204;2023-05-01T09:46:21;44.40;17.90
76305;DHT22;65111;50.536;19.204;2023-05-01T09:48:52;44.90;17.60
76305;DHT22;65111;50.536;19.204;2023-05-01T09:51:28;44.60;17.80
76305;DHT22;65111;50.536;19.204;2023-05-01T09:53:56;44.30;18.20
76305;DHT22;65111;50.536;19.204;2023-05-01T09:56:22;44.50;18.20
76305;DHT22;65111;50.536;19.204;2023-05-01T09:58:50;45.20;18.00
76305;DHT22;65111;50.536;19.204;2023-05-01T10:01:16;45.50;17.70
76305;DHT22;65111;50.536;19.204;2023-05-01T10:03:44;45.60;17.80
76305;DHT22;65111;50.536;19.204;2023-05-01T10:06:10;45.60;17.90
76305;DHT22;65111;50.536;19.204;2023-05-01T10:08:52;45.70;17.80
76305;DHT22;65111;50.536;19.204;2023-05-01T10:11:19;46.20;17.80
76305;DHT22;65111;50.536;19.204;2023-05-01T10:14:04;46.30;17.80
76305;DHT22;65111;50.536;19.204;2023-05-01T10:16:33;46.50;17.80
76305;DHT22;65111;50.536;19.204;2023-05-01T10:19:00;46.80;17.70
76305;DHT22;65111;50.536;19.204;2023-05-01T10:21:26;47.10;17.70
76305;DHT22;65111;50.536;19.204;2023-05-01T10:23:54;47.00;17.60
76305;DHT22;65111;50.536;19.204;2023-05-01T10:26:20;46.60;17.70
76305;DHT22;65111;50.536;19.204;2023-05-01T10:28:47;46.50;17.80
76305;DHT22;65111;50.536;19.204;2023-05-01T10:31:15;46.70;17.60
76305;DHT22;65111;50.536;19.204;2023-05-01T10:33:42;47.50;17.40
76305;DHT22;65111;50.536;19.204;2023-05-01T10:36:14;48.00;17.40
76305;DHT22;65111;50.536;19.204;2023-05-01T10:38:42;48.20;17.30
76305;DHT22;65111;50.536;19.204;2023-05-01T10:41:16;47.30;17.40
76305;DHT22;65111;50.536;19.204;2023-05-01T10:43:42;46.00;17.50
76305;DHT22;65111;50.536;19.204;2023-05-01T10:51:20;46.70;17.40
76305;DHT22;65111;50.536;19.204;2023-05-01T10:53:48;46.20;17.40
76305;DHT22;65111;50.536;19.204;2023-05-01T11:09:53;46.80;17.00
76305;DHT22;65111;50.536;19.204;2023-05-01T11:15:30;47.30;16.80
76305;DHT22;65111;50.536;19.204;2023-05-01T11:17:59;46.70;16.90
76305;DHT22;65111;50.536;19.204;2023-05-01T11:22:55;45.40;17.00
76305;DHT22;65111;50.536;19.204;2023-05-01T11:25:29;45.10;17.10
76305;DHT22;65111;50.536;19.204;2023-05-01T11:27:57;43.90;17.30
76305;DHT22;65111;50.536;19.204;2023-05-01T11:30:23;42.80;17.80
76305;DHT22;65111;50.536;19.204;2023-05-01T11:32:50;41.10;18.00
76305;DHT22;65111;50.536;19.204;2023-05-01T11:35:21;38.80;17.80
76305;DHT22;65111;50.536;19.204;2023-05-01T11:37:48;36.20;18.40
76305;DHT22;65111;50.536;19.204;2023-05-01T11:42:46;32.00;20.10
76305;DHT22;65111;50.536;19.204;2023-05-01T11:45:13;30.00;21.00
76305;DHT22;65111;50.536;19.204;2023-05-01T11:47:39;28.10;21.90
76305;DHT22;65111;50.536;19.204;2023-05-01T11:50:07;26.40;23.40
76305;DHT22;65111;50.536;19.204;2023-05-01T11:52:52;25.10;23.70
76305;DHT22;65111;50.536;19.204;2023-05-01T11:55:19;23.90;24.50
76305;DHT22;65111;50.536;19.204;2023-05-01T11:57:50;23.10;25.30
76305;DHT22;65111;50.536;19.204;2023-05-01T12:03:03;21.80;25.50
76305;DHT22;65111;50.536;19.204;2023-05-01T12:05:32;21.30;25.70
76305;DHT22;65111;50.536;19.204;2023-05-01T12:08:10;21.00;25.70
76305;DHT22;65111;50.536;19.204;2023-05-01T12:10:38;20.80;26.40
76305;DHT22;65111;50.536;19.204;2023-05-01T12:13:06;20.60;26.30
76305;DHT22;65111;50.536;19.204;2023-05-01T12:15:44;20.30;26.40
76305;DHT22;65111;50.536;19.204;2023-05-01T12:18:12;20.10;27.30
76305;DHT22;65111;50.536;19.204;2023-05-01T12:20:41;19.90;28.10
76305;DHT22;65111;50.536;19.204;2023-05-01T12:23:09;19.70;27.60
76305;DHT22;65111;50.536;19.204;2023-05-01T12:25:37;19.70;27.50
76305;DHT22;65111;50.536;19.204;2023-05-01T12:28:13;19.60;27.70
76305;DHT22;65111;50.536;19.204;2023-05-01T12:30:40;19.50;28.00
76305;DHT22;65111;50.536;19.204;2023-05-01T12:33:14;19.40;28.70
76305;DHT22;65111;50.536;19.204;2023-05-01T12:35:42;19.40;27.90
76305;DHT22;65111;50.536;19.204;2023-05-01T12:38:11;19.40;28.00
76305;DHT22;65111;50.536;19.204;2023-05-01T12:40:51;19.40;28.10
76305;DHT22;65111;50.536;19.204;2023-05-01T12:43:22;19.40;28.00
76305;DHT22;65111;50.536;19.204;2023-05-01T12:45:54;19.40;28.00
76305;DHT22;65111;50.536;19.204;2023-05-01T12:48:23;19.30;27.90
76305;DHT22;65111;50.536;19.204;2023-05-01T12:50:50;19.50;28.40
76305;DHT22;65111;50.536;19.204;2023-05-01T12:53:21;19.50;28.70
76305;DHT22;65111;50.536;19.204;2023-05-01T12:55:50;19.50;28.90
76305;DHT22;65111;50.536;19.204;2023-05-01T12:58:17;19.30;28.90
76305;DHT22;65111;50.536;19.204;2023-05-01T13:00:54;19.30;28.50
76305;DHT22;65111;50.536;19.204;2023-05-01T13:03:25;19.20;29.00
76305;DHT22;65111;50.536;19.204;2023-05-01T13:05:58;19.20;28.70
76305;DHT22;65111;50.536;19.204;2023-05-01T13:08:37;19.20;28.70
76305;DHT22;65111;50.536;19.204;2023-05-01T13:11:13;19.20;29.20
76305;DHT22;65111;50.536;19.204;2023-05-01T13:13:43;19.10;28.40
76305;DHT22;65111;50.536;19.204;2023-05-01T13:16:11;19.20;27.70
76305;DHT22;65111;50.536;19.204;2023-05-01T13:18:46;19.20;28.50
76305;DHT22;65111;50.536;19.204;2023-05-01T13:21:22;19.20;28.20
76305;DHT22;65111;50.536;19.204;2023-05-01T13:23:57;19.30;29.00
76305;DHT22;65111;50.536;19.204;2023-05-01T13:26:32;19.30;28.90
76305;DHT22;65111;50.536;19.204;2023-05-01T13:29:00;19.20;28.40
76305;DHT22;65111;50.536;19.204;2023-05-01T13:31:28;19.30;28.00
76305;DHT22;65111;50.536;19.204;2023-05-01T13:33:57;19.30;28.40
76305;DHT22;65111;50.536;19.204;2023-05-01T13:36:23;19.30;29.00
76305;DHT22;65111;50.536;19.204;2023-05-01T13:38:50;19.30;29.60
76305;DHT22;65111;50.536;19.204;2023-05-01T13:41:20;19.30;29.30
76305;DHT22;65111;50.536;19.204;2023-05-01T13:43:47;19.30;29.00
76305;DHT22;65111;50.536;19.204;2023-05-01T13:46:16;19.30;28.70
76305;DHT22;65111;50.536;19.204;2023-05-01T13:48:43;19.30;28.40
76305;DHT22;65111;50.536;19.204;2023-05-01T13:51:11;19.30;29.00
76305;DHT22;65111;50.536;19.204;2023-05-01T13:53:39;19.30;29.20
76305;DHT22;65111;50.536;19.204;2023-05-01T13:56:08;19.30;29.20
76305;DHT22;65111;50.536;19.204;2023-05-01T13:58:35;19.30;29.00
76305;DHT22;65111;50.536;19.204;2023-05-01T14:01:01;19.30;29.10
76305;DHT22;65111;50.536;19.204;2023-05-01T14:03:40;19.30;29.20
76305;DHT22;65111;50.536;19.204;2023-05-01T14:06:13;19.30;29.30
76305;DHT22;65111;50.536;19.204;2023-05-01T14:08:39;19.30;29.30
76305;DHT22;65111;50.536;19.204;2023-05-01T14:11:07;19.40;29.40
76305;DHT22;65111;50.536;19.204;2023-05-01T14:13:34;19.40;29.50
76305;DHT22;65111;50.536;19.204;2023-05-01T14:16:05;19.40;29.80
76305;DHT22;65111;50.536;19.204;2023-05-01T14:18:35;19.40;30.00
76305;DHT22;65111;50.536;19.204;2023-05-01T14:21:01;19.40;29.60
76305;DHT22;65111;50.536;19.204;2023-05-01T14:23:28;19.40;29.80
76305;DHT22;65111;50.536;19.204;2023-05-01T14:25:54;19.40;29.70
76305;DHT22;65111;50.536;19.204;2023-05-01T14:28:20;19.40;29.60
76305;DHT22;65111;50.536;19.204;2023-05-01T14:30:45;19.40;29.60
76305;DHT22;65111;50.536;19.204;2023-05-01T14:33:13;19.40;29.40
76305;DHT22;65111;50.536;19.204;2023-05-01T14:35:49;19.50;29.40
76305;DHT22;65111;50.536;19.204;2023-05-01T14:38:17;19.40;29.30
76305;DHT22;65111;50.536;19.204;2023-05-01T14:40:44;19.40;29.80
76305;DHT22;65111;50.536;19.204;2023-05-01T14:43:16;19.30;29.90
76305;DHT22;65111;50.536;19.204;2023-05-01T14:45:43;19.40;29.70
76305;DHT22;65111;50.536;19.204;2023-05-01T14:48:34;19.40;29.60
76305;DHT22;65111;50.536;19.204;2023-05-01T14:51:03;19.30;29.40
76305;DHT22;65111;50.536;19.204;2023-05-01T14:53:32;19.30;30.00
76305;DHT22;65111;50.536;19.204;2023-05-01T14:55:58;19.20;29.60
76305;DHT22;65111;50.536;19.204;2023-05-01T14:58:24;19.10;29.90
76305;DHT22;65111;50.536;19.204;2023-05-01T15:00:50;19.10;30.40
76305;DHT22;65111;50.536;19.204;2023-05-01T15:03:16;19.10;30.10
76305;DHT22;65111;50.536;19.204;2023-05-01T15:05:43;19.00;30.30
76305;DHT22;65111;50.536;19.204;2023-05-01T15:08:10;19.00;30.70
76305;DHT22;65111;50.536;19.204;2023-05-01T15:10:36;19.00;31.30
76305;DHT22;65111;50.536;19.204;2023-05-01T15:13:03;19.00;31.70
76305;DHT22;65111;50.536;19.204;2023-05-01T15:15:30;19.10;32.20
76305;DHT22;65111;50.536;19.204;2023-05-01T15:17:56;19.10;32.00
76305;DHT22;65111;50.536;19.204;2023-05-01T15:20:22;19.10;32.10
76305;DHT22;65111;50.536;19.204;2023-05-01T15:22:48;19.10;32.20
76305;DHT22;65111;50.536;19.204;2023-05-01T15:25:15;19.10;32.20
76305;DHT22;65111;50.536;19.204;2023-05-01T15:27:41;19.00;32.20
76305;DHT22;65111;50.536;19.204;2023-05-01T15:30:07;18.90;33.20
76305;DHT22;65111;50.536;19.204;2023-05-01T15:32:36;18.90;32.50
76305;DHT22;65111;50.536;19.204;2023-05-01T15:35:03;18.90;32.80
76305;DHT22;65111;50.536;19.204;2023-05-01T15:37:29;18.90;32.80
76305;DHT22;65111;50.536;19.204;2023-05-01T15:39:56;18.70;32.20
76305;DHT22;65111;50.536;19.204;2023-05-01T15:42:22;18.70;32.50
76305;DHT22;65111;50.536;19.204;2023-05-01T15:44:48;18.70;32.90
76305;DHT22;65111;50.536;19.204;2023-05-01T15:47:14;18.70;32.90
76305;DHT22;65111;50.536;19.204;2023-05-01T15:49:41;18.70;32.90
76305;DHT22;65111;50.536;19.204;2023-05-01T15:52:07;18.60;33.10
76305;DHT22;65111;50.536;19.204;2023-05-01T15:54:34;18.50;33.50
76305;DHT22;65111;50.536;19.204;2023-05-01T15:57:00;18.40;34.30
76305;DHT22;65111;50.536;19.204;2023-05-01T15:59:28;18.40;33.80
76305;DHT22;65111;50.536;19.204;2023-05-01T16:01:54;18.10;35.30
76305;DHT22;65111;50.536;19.204;2023-05-01T16:04:20;18.00;35.30
76305;DHT22;65111;50.536;19.204;2023-05-01T16:06:47;17.90;35.30
76305;DHT22;65111;50.536;19.204;2023-05-01T16:09:13;17.70;35.90
76305;DHT22;65111;50.536;19.204;2023-05-01T16:11:39;17.70;35.70
76305;DHT22;65111;50.536;19.204;2023-05-01T16:14:09;17.60;36.10
76305;DHT22;65111;50.536;19.204;2023-05-01T16:16:40;17.50;36.20
76305;DHT22;65111;50.536;19.204;2023-05-01T16:19:06;17.50;36.60
76305;DHT22;65111;50.536;19.204;2023-05-01T16:21:32;17.50;36.90
76305;DHT22;65111;50.536;19.204;2023-05-01T16:24:00;17.50;36.70
76305;DHT22;65111;50.536;19.204;2023-05-01T16:26:28;17.50;36.90
76305;DHT22;65111;50.536;19.204;2023-05-01T16:28:58;17.50;37.50
76305;DHT22;65111;50.536;19.204;2023-05-01T16:31:24;17.40;37.80
76305;DHT22;65111;50.536;19.204;2023-05-01T16:33:51;17.30;37.40
76305;DHT22;65111;50.536;19.204;2023-05-01T16:36:19;17.40;37.60
76305;DHT22;65111;50.536;19.204;2023-05-01T16:38:46;17.30;37.60
76305;DHT22;65111;50.536;19.204;2023-05-01T16:41:16;17.20;38.30
76305;DHT22;65111;50.536;19.204;2023-05-01T16:43:45;17.10;38.50
76305;DHT22;65111;50.536;19.204;2023-05-01T16:46:13;17.00;38.50
76305;DHT22;65111;50.536;19.204;2023-05-01T16:48:39;16.80;38.40
76305;DHT22;65111;50.536;19.204;2023-05-01T16:51:05;16.80;38.50
76305;DHT22;65111;50.536;19.204;2023-05-01T16:53:33;16.70;38.30
76305;DHT22;65111;50.536;19.204;2023-05-01T16:55:59;16.60;38.20
76305;DHT22;65111;50.536;19.204;2023-05-01T16:58:25;16.50;38.30
76305;DHT22;65111;50.536;19.204;2023-05-01T17:00:53;16.40;38.30
76305;DHT22;65111;50.536;19.204;2023-05-01T17:03:19;16.30;38.30
76305;DHT22;65111;50.536;19.204;2023-05-01T17:05:45;16.30;38.00
76305;DHT22;65111;50.536;19.204;2023-05-01T17:08:11;16.30;38.00
76305;DHT22;65111;50.536;19.204;2023-05-01T17:10:37;16.20;38.20
76305;DHT22;65111;50.536;19.204;2023-05-01T17:13:03;16.20;38.30
76305;DHT22;65111;50.536;19.204;2023-05-01T17:15:31;16.10;38.40
76305;DHT22;65111;50.536;19.204;2023-05-01T17:17:57;16.10;38.40
76305;DHT22;65111;50.536;19.204;2023-05-01T17:20:23;16.00;38.50
76305;DHT22;65111;50.536;19.204;2023-05-01T17:22:50;16.00;38.10
76305;DHT22;65111;50.536;19.204;2023-05-01T17:25:16;15.90;37.70
76305;DHT22;65111;50.536;19.204;2023-05-01T17:27:42;15.90;38.10
76305;DHT22;65111;50.536;19.204;2023-05-01T17:30:08;15.80;38.20
76305;DHT22;65111;50.536;19.204;2023-05-01T17:32:35;15.70;38.60